Terminal Aerodrome Forecast
Issued by NWS

Home | Current Version | Previous Version | Text Only | Print | Product List | Glossary On
Versions: 1 2 3 4 5 6 7 8 9 10 11 12 13
000
FTUS41 KLWX 012300
TAFMTN
TAF
KMTN 012320Z 0200/0224 07004KT P6SM SCT035
     FM020200 08004KT P6SM BKN035
     FM020900 00000KT P6SM SCT010 BKN035
     FM021400 04004KT P6SM FEW010 SCT250
     FM021800 06004KT P6SM SCT035
      AMD NOT SKED 0202/0212=

USA.gov is the U.S. government's official web portal to all federal, state and local government web resources and services.